sensor_id;sensor_type;location;lat;lon;timestamp;P1;durP1;ratioP1;P2;durP2;ratioP2
20014;SDS011;61787;42.022;23.078;2024-02-14T00:00:59;1.80;;;0.70;;
20014;SDS011;61787;42.022;23.078;2024-02-14T00:02:01;2.25;;;1.13;;
20014;SDS011;61787;42.022;23.078;2024-02-14T00:03:02;1.30;;;0.65;;
20014;SDS011;61787;42.022;23.078;2024-02-14T00:04:04;1.52;;;0.80;;
20014;SDS011;61787;42.022;23.078;2024-02-14T00:05:08;2.20;;;0.90;;
20014;SDS011;61787;42.022;23.078;2024-02-14T00:06:12;2.50;;;0.80;;
20014;SDS011;61787;42.022;23.078;2024-02-14T00:07:14;2.17;;;1.00;;
20014;SDS011;61787;42.022;23.078;2024-02-14T00:08:16;3.05;;;0.70;;
20014;SDS011;61787;42.022;23.078;2024-02-14T00:09:18;1.55;;;0.77;;
20014;SDS011;61787;42.022;23.078;2024-02-14T00:10:20;1.42;;;0.57;;
20014;SDS011;61787;42.022;23.078;2024-02-14T00:11:21;1.33;;;0.52;;
20014;SDS011;61787;42.022;23.078;2024-02-14T00:12:24;2.78;;;1.20;;
20014;SDS011;61787;42.022;23.078;2024-02-14T00:13:26;1.90;;;1.00;;
20014;SDS011;61787;42.022;23.078;2024-02-14T00:14:27;2.42;;;1.10;;
20014;SDS011;61787;42.022;23.078;2024-02-14T00:15:29;2.25;;;0.90;;
20014;SDS011;61787;42.022;23.078;2024-02-14T00:16:31;1.55;;;0.80;;
20014;SDS011;61787;42.022;23.078;2024-02-14T00:17:34;2.10;;;1.20;;
20014;SDS011;61787;42.022;23.078;2024-02-14T00:18:36;2.25;;;1.33;;
20014;SDS011;61787;42.022;23.078;2024-02-14T00:19:38;2.10;;;1.23;;
20014;SDS011;61787;42.022;23.078;2024-02-14T00:20:40;2.38;;;1.60;;
20014;SDS011;61787;42.022;23.078;2024-02-14T00:21:42;1.83;;;1.27;;
20014;SDS011;61787;42.022;23.078;2024-02-14T00:22:43;2.35;;;1.60;;
20014;SDS011;61787;42.022;23.078;2024-02-14T00:23:45;2.60;;;1.50;;
20014;SDS011;61787;42.022;23.078;2024-02-14T00:24:47;2.53;;;1.83;;
20014;SDS011;61787;42.022;23.078;2024-02-14T00:25:49;3.53;;;2.00;;
20014;SDS011;61787;42.022;23.078;2024-02-14T00:26:50;1.80;;;1.27;;
20014;SDS011;61787;42.022;23.078;2024-02-14T00:27:52;2.60;;;2.00;;
20014;SDS011;61787;42.022;23.078;2024-02-14T00:28:55;2.20;;;1.40;;
20014;SDS011;61787;42.022;23.078;2024-02-14T00:29:57;2.90;;;1.13;;
20014;SDS011;61787;42.022;23.078;2024-02-14T00:30:58;2.60;;;1.33;;
20014;SDS011;61787;42.022;23.078;2024-02-14T00:32:00;1.98;;;1.08;;
20014;SDS011;61787;42.022;23.078;2024-02-14T00:33:02;2.80;;;1.45;;
20014;SDS011;61787;42.022;23.078;2024-02-14T00:34:04;1.88;;;0.90;;
20014;SDS011;61787;42.022;23.078;2024-02-14T00:35:06;2.85;;;1.25;;
20014;SDS011;61787;42.022;23.078;2024-02-14T00:36:09;2.30;;;1.38;;
20014;SDS011;61787;42.022;23.078;2024-02-14T00:37:10;1.80;;;1.15;;
20014;SDS011;61787;42.022;23.078;2024-02-14T00:38:12;2.63;;;1.20;;
20014;SDS011;61787;42.022;23.078;2024-02-14T00:39:14;2.95;;;1.20;;
20014;SDS011;61787;42.022;23.078;2024-02-14T00:40:16;2.80;;;1.38;;
20014;SDS011;61787;42.022;23.078;2024-02-14T00:41:19;2.17;;;1.00;;
20014;SDS011;61787;42.022;23.078;2024-02-14T00:42:20;2.70;;;1.25;;
20014;SDS011;61787;42.022;23.078;2024-02-14T00:43:22;2.08;;;1.13;;
20014;SDS011;61787;42.022;23.078;2024-02-14T00:44:23;2.10;;;1.15;;
20014;SDS011;61787;42.022;23.078;2024-02-14T00:45:25;2.85;;;1.55;;
20014;SDS011;61787;42.022;23.078;2024-02-14T00:46:27;1.85;;;0.88;;
20014;SDS011;61787;42.022;23.078;2024-02-14T00:47:28;1.98;;;1.27;;
20014;SDS011;61787;42.022;23.078;2024-02-14T00:48:31;1.60;;;1.30;;
20014;SDS011;61787;42.022;23.078;2024-02-14T00:49:34;3.35;;;1.73;;
20014;SDS011;61787;42.022;23.078;2024-02-14T00:50:36;2.55;;;1.60;;
20014;SDS011;61787;42.022;23.078;2024-02-14T00:51:39;3.05;;;1.67;;
20014;SDS011;61787;42.022;23.078;2024-02-14T00:52:41;2.75;;;1.83;;
20014;SDS011;61787;42.022;23.078;2024-02-14T00:53:43;2.63;;;1.70;;
20014;SDS011;61787;42.022;23.078;2024-02-14T00:54:44;3.08;;;1.63;;
20014;SDS011;61787;42.022;23.078;2024-02-14T00:55:46;2.33;;;2.03;;
20014;SDS011;61787;42.022;23.078;2024-02-14T00:56:48;2.38;;;1.75;;
20014;SDS011;61787;42.022;23.078;2024-02-14T00:57:49;2.42;;;1.85;;
20014;SDS011;61787;42.022;23.078;2024-02-14T00:58:52;3.30;;;2.08;;
20014;SDS011;61787;42.022;23.078;2024-02-14T00:59:53;3.33;;;1.92;;
20014;SDS011;61787;42.022;23.078;2024-02-14T01:00:57;3.05;;;2.20;;
20014;SDS011;61787;42.022;23.078;2024-02-14T01:01:59;2.80;;;1.83;;
20014;SDS011;61787;42.022;23.078;2024-02-14T01:03:00;1.83;;;1.50;;
20014;SDS011;61787;42.022;23.078;2024-02-14T01:04:04;3.67;;;1.90;;
20014;SDS011;61787;42.022;23.078;2024-02-14T01:05:06;2.88;;;2.17;;
20014;SDS011;61787;42.022;23.078;2024-02-14T01:06:08;3.42;;;2.25;;
20014;SDS011;61787;42.022;23.078;2024-02-14T01:07:09;2.45;;;1.90;;
20014;SDS011;61787;42.022;23.078;2024-02-14T01:08:11;3.25;;;2.28;;
20014;SDS011;61787;42.022;23.078;2024-02-14T01:09:14;2.97;;;2.55;;
20014;SDS011;61787;42.022;23.078;2024-02-14T01:10:15;3.05;;;2.28;;
20014;SDS011;61787;42.022;23.078;2024-02-14T01:11:17;3.13;;;2.20;;
20014;SDS011;61787;42.022;23.078;2024-02-14T01:12:19;4.53;;;2.80;;
20014;SDS011;61787;42.022;23.078;2024-02-14T01:13:20;3.30;;;2.90;;
20014;SDS011;61787;42.022;23.078;2024-02-14T01:14:22;3.38;;;2.65;;
20014;SDS011;61787;42.022;23.078;2024-02-14T01:15:23;4.60;;;2.45;;
20014;SDS011;61787;42.022;23.078;2024-02-14T01:16:25;3.40;;;2.53;;
20014;SDS011;61787;42.022;23.078;2024-02-14T01:17:27;3.15;;;2.30;;
20014;SDS011;61787;42.022;23.078;2024-02-14T01:18:30;2.67;;;2.42;;
20014;SDS011;61787;42.022;23.078;2024-02-14T01:19:32;4.95;;;2.78;;
20014;SDS011;61787;42.022;23.078;2024-02-14T01:20:35;2.70;;;2.40;;
20014;SDS011;61787;42.022;23.078;2024-02-14T01:21:36;3.58;;;2.35;;
20014;SDS011;61787;42.022;23.078;2024-02-14T01:22:38;3.45;;;2.67;;
20014;SDS011;61787;42.022;23.078;2024-02-14T01:23:40;2.38;;;2.15;;
20014;SDS011;61787;42.022;23.078;2024-02-14T01:24:44;3.97;;;2.03;;
20014;SDS011;61787;42.022;23.078;2024-02-14T01:25:46;3.72;;;1.92;;
20014;SDS011;61787;42.022;23.078;2024-02-14T01:26:48;3.92;;;2.97;;
20014;SDS011;61787;42.022;23.078;2024-02-14T01:27:52;3.92;;;2.63;;
20014;SDS011;61787;42.022;23.078;2024-02-14T01:28:56;4.13;;;2.78;;
20014;SDS011;61787;42.022;23.078;2024-02-14T01:29:57;3.95;;;2.75;;
20014;SDS011;61787;42.022;23.078;2024-02-14T01:30:59;3.00;;;2.40;;
20014;SDS011;61787;42.022;23.078;2024-02-14T01:32:01;2.97;;;2.25;;
20014;SDS011;61787;42.022;23.078;2024-02-14T01:33:03;2.40;;;1.85;;
20014;SDS011;61787;42.022;23.078;2024-02-14T01:34:05;3.30;;;2.97;;
20014;SDS011;61787;42.022;23.078;2024-02-14T01:35:07;2.65;;;2.17;;
20014;SDS011;61787;42.022;23.078;2024-02-14T01:36:09;4.68;;;2.45;;
20014;SDS011;61787;42.022;23.078;2024-02-14T01:37:10;2.92;;;1.75;;
20014;SDS011;61787;42.022;23.078;2024-02-14T01:38:12;3.17;;;2.13;;
20014;SDS011;61787;42.022;23.078;2024-02-14T01:39:14;2.35;;;1.70;;
20014;SDS011;61787;42.022;23.078;2024-02-14T01:40:16;1.90;;;1.50;;
20014;SDS011;61787;42.022;23.078;2024-02-14T01:41:17;3.53;;;2.80;;
20014;SDS011;61787;42.022;23.078;2024-02-14T01:42:20;5.63;;;2.50;;
20014;SDS011;61787;42.022;23.078;2024-02-14T01:43:22;2.97;;;1.98;;
20014;SDS011;61787;42.022;23.078;2024-02-14T01:44:23;3.25;;;2.10;;
20014;SDS011;61787;42.022;23.078;2024-02-14T01:45:25;3.65;;;2.35;;
20014;SDS011;61787;42.022;23.078;2024-02-14T01:46:27;3.08;;;2.50;;
20014;SDS011;61787;42.022;23.078;2024-02-14T01:47:28;4.75;;;2.67;;
20014;SDS011;61787;42.022;23.078;2024-02-14T01:48:30;3.35;;;2.10;;
20014;SDS011;61787;42.022;23.078;2024-02-14T01:49:34;3.42;;;2.63;;
20014;SDS011;61787;42.022;23.078;2024-02-14T01:50:37;3.45;;;2.70;;
20014;SDS011;61787;42.022;23.078;2024-02-14T01:51:40;3.22;;;1.88;;
20014;SDS011;61787;42.022;23.078;2024-02-14T01:52:46;3.20;;;2.00;;
20014;SDS011;61787;42.022;23.078;2024-02-14T01:53:48;4.22;;;2.45;;
20014;SDS011;61787;42.022;23.078;2024-02-14T01:54:49;3.55;;;2.95;;
20014;SDS011;61787;42.022;23.078;2024-02-14T01:55:53;2.30;;;1.60;;
20014;SDS011;61787;42.022;23.078;2024-02-14T01:56:54;4.00;;;2.95;;
20014;SDS011;61787;42.022;23.078;2024-02-14T01:57:57;3.63;;;2.05;;
20014;SDS011;61787;42.022;23.078;2024-02-14T01:58:59;4.50;;;2.38;;
20014;SDS011;61787;42.022;23.078;2024-02-14T02:00:02;3.67;;;2.63;;
20014;SDS011;61787;42.022;23.078;2024-02-14T02:01:11;3.13;;;2.15;;
20014;SDS011;61787;42.022;23.078;2024-02-14T02:02:13;2.53;;;2.08;;
20014;SDS011;61787;42.022;23.078;2024-02-14T02:03:15;3.72;;;2.30;;
20014;SDS011;61787;42.022;23.078;2024-02-14T02:04:17;3.08;;;2.17;;
20014;SDS011;61787;42.022;23.078;2024-02-14T02:05:19;3.08;;;2.30;;
20014;SDS011;61787;42.022;23.078;2024-02-14T02:06:21;4.38;;;3.15;;
20014;SDS011;61787;42.022;23.078;2024-02-14T02:07:23;4.80;;;2.55;;
20014;SDS011;61787;42.022;23.078;2024-02-14T02:08:25;4.68;;;3.13;;
20014;SDS011;61787;42.022;23.078;2024-02-14T02:09:27;4.20;;;2.67;;
20014;SDS011;61787;42.022;23.078;2024-02-14T02:10:28;4.85;;;3.10;;
20014;SDS011;61787;42.022;23.078;2024-02-14T02:11:30;3.63;;;3.15;;
20014;SDS011;61787;42.022;23.078;2024-02-14T02:12:32;3.42;;;2.85;;
20014;SDS011;61787;42.022;23.078;2024-02-14T02:13:33;4.72;;;2.97;;
20014;SDS011;61787;42.022;23.078;2024-02-14T02:14:35;4.15;;;2.78;;
20014;SDS011;61787;42.022;23.078;2024-02-14T02:15:37;5.05;;;3.13;;
20014;SDS011;61787;42.022;23.078;2024-02-14T02:16:39;3.42;;;3.13;;
20014;SDS011;61787;42.022;23.078;2024-02-14T02:17:40;4.28;;;2.72;;
20014;SDS011;61787;42.022;23.078;2024-02-14T02:18:43;2.90;;;2.58;;
20014;SDS011;61787;42.022;23.078;2024-02-14T02:19:45;4.03;;;2.92;;
20014;SDS011;61787;42.022;23.078;2024-02-14T02:20:48;3.55;;;3.08;;
20014;SDS011;61787;42.022;23.078;2024-02-14T02:21:51;4.60;;;3.25;;
20014;SDS011;61787;42.022;23.078;2024-02-14T02:22:53;7.35;;;3.08;;
20014;SDS011;61787;42.022;23.078;2024-02-14T02:23:55;4.63;;;3.85;;
20014;SDS011;61787;42.022;23.078;2024-02-14T02:24:57;4.20;;;2.58;;
20014;SDS011;61787;42.022;23.078;2024-02-14T02:26:00;4.10;;;2.83;;
20014;SDS011;61787;42.022;23.078;2024-02-14T02:27:02;4.20;;;3.08;;
20014;SDS011;61787;42.022;23.078;2024-02-14T02:28:04;5.40;;;3.70;;
20014;SDS011;61787;42.022;23.078;2024-02-14T02:29:06;5.20;;;3.53;;
20014;SDS011;61787;42.022;23.078;2024-02-14T02:30:08;3.42;;;2.53;;
20014;SDS011;61787;42.022;23.078;2024-02-14T02:31:11;4.82;;;3.10;;
20014;SDS011;61787;42.022;23.078;2024-02-14T02:32:13;4.18;;;2.80;;
20014;SDS011;61787;42.022;23.078;2024-02-14T02:33:14;4.43;;;3.40;;
20014;SDS011;61787;42.022;23.078;2024-02-14T02:34:16;5.30;;;3.22;;
20014;SDS011;61787;42.022;23.078;2024-02-14T02:35:19;4.22;;;3.40;;
20014;SDS011;61787;42.022;23.078;2024-02-14T02:36:22;3.97;;;3.25;;
20014;SDS011;61787;42.022;23.078;2024-02-14T02:37:25;5.80;;;3.55;;
20014;SDS011;61787;42.022;23.078;2024-02-14T02:38:31;4.75;;;3.80;;
20014;SDS011;61787;42.022;23.078;2024-02-14T02:39:33;4.15;;;3.25;;
20014;SDS011;61787;42.022;23.078;2024-02-14T02:40:35;3.55;;;2.85;;
20014;SDS011;61787;42.022;23.078;2024-02-14T02:41:36;5.32;;;3.35;;
20014;SDS011;61787;42.022;23.078;2024-02-14T02:42:38;3.15;;;2.83;;
20014;SDS011;61787;42.022;23.078;2024-02-14T02:43:40;4.28;;;3.38;;
20014;SDS011;61787;42.022;23.078;2024-02-14T02:44:41;4.60;;;3.20;;
20014;SDS011;61787;42.022;23.078;2024-02-14T02:45:43;4.80;;;3.67;;
20014;SDS011;61787;42.022;23.078;2024-02-14T02:46:45;3.80;;;3.05;;
20014;SDS011;61787;42.022;23.078;2024-02-14T02:47:47;6.40;;;4.03;;
20014;SDS011;61787;42.022;23.078;2024-02-14T02:48:51;4.25;;;3.45;;
20014;SDS011;61787;42.022;23.078;2024-02-14T02:49:56;5.03;;;3.88;;
20014;SDS011;61787;42.022;23.078;2024-02-14T02:50:58;4.85;;;3.63;;
20014;SDS011;61787;42.022;23.078;2024-02-14T02:52:00;5.63;;;3.45;;
20014;SDS011;61787;42.022;23.078;2024-02-14T02:53:02;6.45;;;3.90;;
20014;SDS011;61787;42.022;23.078;2024-02-14T02:54:04;4.80;;;3.60;;
20014;SDS011;61787;42.022;23.078;2024-02-14T02:55:05;5.72;;;3.22;;
20014;SDS011;61787;42.022;23.078;2024-02-14T02:56:07;4.97;;;4.03;;
20014;SDS011;61787;42.022;23.078;2024-02-14T02:57:10;4.93;;;3.95;;
20014;SDS011;61787;42.022;23.078;2024-02-14T02:58:12;5.50;;;3.95;;
20014;SDS011;61787;42.022;23.078;2024-02-14T02:59:15;3.92;;;3.50;;
20014;SDS011;61787;42.022;23.078;2024-02-14T03:00:18;5.38;;;3.72;;
20014;SDS011;61787;42.022;23.078;2024-02-14T03:01:22;4.78;;;3.55;;
20014;SDS011;61787;42.022;23.078;2024-02-14T03:02:26;5.38;;;4.10;;
20014;SDS011;61787;42.022;23.078;2024-02-14T03:03:28;4.72;;;3.72;;
20014;SDS011;61787;42.022;23.078;2024-02-14T03:04:29;5.80;;;3.28;;
20014;SDS011;61787;42.022;23.078;2024-02-14T03:08:09;4.68;;;3.78;;
20014;SDS011;61787;42.022;23.078;2024-02-14T03:09:14;5.88;;;3.53;;
20014;SDS011;61787;42.022;23.078;2024-02-14T03:10:16;5.60;;;4.43;;
20014;SDS011;61787;42.022;23.078;2024-02-14T03:11:22;4.22;;;3.38;;
20014;SDS011;61787;42.022;23.078;2024-02-14T03:12:24;5.03;;;3.55;;
20014;SDS011;61787;42.022;23.078;2024-02-14T03:13:29;5.95;;;3.72;;
20014;SDS011;61787;42.022;23.078;2024-02-14T03:14:31;4.78;;;3.92;;
20014;SDS011;61787;42.022;23.078;2024-02-14T03:15:34;4.45;;;3.50;;
20014;SDS011;61787;42.022;23.078;2024-02-14T03:16:36;4.47;;;3.50;;
20014;SDS011;61787;42.022;23.078;2024-02-14T03:17:38;5.90;;;4.00;;
20014;SDS011;61787;42.022;23.078;2024-02-14T03:18:40;5.55;;;3.70;;
20014;SDS011;61787;42.022;23.078;2024-02-14T03:19:42;5.30;;;4.13;;
20014;SDS011;61787;42.022;23.078;2024-02-14T03:20:44;4.90;;;4.03;;
20014;SDS011;61787;42.022;23.078;2024-02-14T03:21:46;4.82;;;3.70;;
20014;SDS011;61787;42.022;23.078;2024-02-14T03:22:48;5.70;;;4.00;;
20014;SDS011;61787;42.022;23.078;2024-02-14T03:23:50;4.57;;;3.58;;
20014;SDS011;61787;42.022;23.078;2024-02-14T03:24:51;5.65;;;3.67;;
20014;SDS011;61787;42.022;23.078;2024-02-14T03:25:53;5.20;;;4.13;;
20014;SDS011;61787;42.022;23.078;2024-02-14T03:26:54;4.95;;;3.50;;
20014;SDS011;61787;42.022;23.078;2024-02-14T03:27:57;4.70;;;4.03;;
20014;SDS011;61787;42.022;23.078;2024-02-14T03:29:00;6.32;;;3.65;;
20014;SDS011;61787;42.022;23.078;2024-02-14T03:30:02;5.20;;;3.85;;
20014;SDS011;61787;42.022;23.078;2024-02-14T03:31:04;4.70;;;3.83;;
20014;SDS011;61787;42.022;23.078;2024-02-14T03:32:06;5.32;;;3.33;;
20014;SDS011;61787;42.022;23.078;2024-02-14T03:33:09;4.25;;;3.65;;
20014;SDS011;61787;42.022;23.078;2024-02-14T03:34:11;5.07;;;4.45;;
20014;SDS011;61787;42.022;23.078;2024-02-14T03:35:13;4.65;;;4.00;;
20014;SDS011;61787;42.022;23.078;2024-02-14T03:36:15;4.05;;;3.63;;
20014;SDS011;61787;42.022;23.078;2024-02-14T03:37:16;4.82;;;3.85;;
20014;SDS011;61787;42.022;23.078;2024-02-14T03:38:26;4.93;;;3.95;;
20014;SDS011;61787;42.022;23.078;2024-02-14T03:39:29;5.18;;;4.03;;
20014;SDS011;61787;42.022;23.078;2024-02-14T03:40:32;5.55;;;3.92;;
20014;SDS011;61787;42.022;23.078;2024-02-14T03:41:34;4.43;;;3.85;;
20014;SDS011;61787;42.022;23.078;2024-02-14T03:42:35;4.88;;;3.97;;
20014;SDS011;61787;42.022;23.078;2024-02-14T03:43:37;6.00;;;4.35;;
20014;SDS011;61787;42.022;23.078;2024-02-14T03:44:39;5.80;;;4.22;;
20014;SDS011;61787;42.022;23.078;2024-02-14T03:45:42;6.93;;;4.13;;
20014;SDS011;61787;42.022;23.078;2024-02-14T03:46:43;6.25;;;4.63;;
20014;SDS011;61787;42.022;23.078;2024-02-14T03:47:45;6.93;;;4.65;;
20014;SDS011;61787;42.022;23.078;2024-02-14T03:48:47;5.07;;;4.25;;
20014;SDS011;61787;42.022;23.078;2024-02-14T03:49:51;5.18;;;3.92;;
20014;SDS011;61787;42.022;23.078;2024-02-14T03:50:53;4.18;;;3.75;;
20014;SDS011;61787;42.022;23.078;2024-02-14T03:51:55;4.97;;;4.15;;
20014;SDS011;61787;42.022;23.078;2024-02-14T03:52:57;7.15;;;4.43;;
20014;SDS011;61787;42.022;23.078;2024-02-14T03:53:59;5.88;;;4.30;;
20014;SDS011;61787;42.022;23.078;2024-02-14T03:55:00;5.88;;;3.92;;
20014;SDS011;61787;42.022;23.078;2024-02-14T03:56:04;5.70;;;4.15;;
20014;SDS011;61787;42.022;23.078;2024-02-14T03:57:06;5.47;;;3.85;;
20014;SDS011;61787;42.022;23.078;2024-02-14T03:58:09;8.13;;;4.78;;
20014;SDS011;61787;42.022;23.078;2024-02-14T03:59:11;5.93;;;4.18;;
20014;SDS011;61787;42.022;23.078;2024-02-14T04:00:13;5.75;;;3.40;;
20014;SDS011;61787;42.022;23.078;2024-02-14T04:01:15;5.30;;;4.43;;
20014;SDS011;61787;42.022;23.078;2024-02-14T04:02:16;6.03;;;4.28;;
20014;SDS011;61787;42.022;23.078;2024-02-14T04:03:18;4.82;;;3.83;;
20014;SDS011;61787;42.022;23.078;2024-02-14T04:04:21;5.45;;;3.47;;
20014;SDS011;61787;42.022;23.078;2024-02-14T04:05:23;4.30;;;3.47;;
20014;SDS011;61787;42.022;23.078;2024-02-14T04:06:25;5.72;;;3.80;;
20014;SDS011;61787;42.022;23.078;2024-02-14T04:07:28;5.30;;;4.05;;
20014;SDS011;61787;42.022;23.078;2024-02-14T04:08:31;4.10;;;3.38;;
20014;SDS011;61787;42.022;23.078;2024-02-14T04:09:33;5.50;;;4.13;;
20014;SDS011;61787;42.022;23.078;2024-02-14T04:10:35;6.20;;;4.30;;
20014;SDS011;61787;42.022;23.078;2024-02-14T04:11:37;5.03;;;3.90;;
20014;SDS011;61787;42.022;23.078;2024-02-14T04:12:39;4.80;;;3.72;;
20014;SDS011;61787;42.022;23.078;2024-02-14T04:13:41;4.80;;;3.47;;
20014;SDS011;61787;42.022;23.078;2024-02-14T04:14:43;5.47;;;4.50;;
20014;SDS011;61787;42.022;23.078;2024-02-14T04:15:44;5.78;;;3.83;;
20014;SDS011;61787;42.022;23.078;2024-02-14T04:16:46;5.75;;;3.95;;
20014;SDS011;61787;42.022;23.078;2024-02-14T04:17:48;5.45;;;3.70;;
20014;SDS011;61787;42.022;23.078;2024-02-14T04:18:50;4.28;;;3.42;;
20014;SDS011;61787;42.022;23.078;2024-02-14T04:19:51;4.15;;;3.72;;
20014;SDS011;61787;42.022;23.078;2024-02-14T04:20:53;5.10;;;3.60;;
20014;SDS011;61787;42.022;23.078;2024-02-14T04:21:55;5.45;;;3.85;;
20014;SDS011;61787;42.022;23.078;2024-02-14T04:22:57;5.65;;;3.78;;
20014;SDS011;61787;42.022;23.078;2024-02-14T04:24:00;4.30;;;3.55;;
20014;SDS011;61787;42.022;23.078;2024-02-14T04:25:01;5.85;;;4.35;;
20014;SDS011;61787;42.022;23.078;2024-02-14T04:26:03;4.82;;;3.60;;
20014;SDS011;61787;42.022;23.078;2024-02-14T04:27:05;5.72;;;4.32;;
20014;SDS011;61787;42.022;23.078;2024-02-14T04:28:07;4.55;;;3.90;;
20014;SDS011;61787;42.022;23.078;2024-02-14T04:29:09;5.78;;;4.00;;
20014;SDS011;61787;42.022;23.078;2024-02-14T04:30:11;4.47;;;3.75;;
20014;SDS011;61787;42.022;23.078;2024-02-14T04:31:13;6.32;;;4.35;;
20014;SDS011;61787;42.022;23.078;2024-02-14T04:32:15;4.18;;;3.15;;
20014;SDS011;61787;42.022;23.078;2024-02-14T04:33:16;5.43;;;4.00;;
20014;SDS011;61787;42.022;23.078;2024-02-14T04:34:19;4.82;;;3.20;;
20014;SDS011;61787;42.022;23.078;2024-02-14T04:35:21;4.10;;;3.33;;
20014;SDS011;61787;42.022;23.078;2024-02-14T04:36:23;7.82;;;4.55;;
20014;SDS011;61787;42.022;23.078;2024-02-14T04:37:24;4.95;;;4.13;;
20014;SDS011;61787;42.022;23.078;2024-02-14T04:38:26;4.90;;;3.63;;
20014;SDS011;61787;42.022;23.078;2024-02-14T04:39:30;4.80;;;3.80;;
20014;SDS011;61787;42.022;23.078;2024-02-14T04:40:31;7.03;;;4.40;;
20014;SDS011;61787;42.022;23.078;2024-02-14T04:41:33;4.75;;;3.85;;
20014;SDS011;61787;42.022;23.078;2024-02-14T04:42:56;6.07;;;3.78;;
20014;SDS011;61787;42.022;23.078;2024-02-14T04:43:58;5.40;;;3.90;;
20014;SDS011;61787;42.022;23.078;2024-02-14T04:45:00;5.15;;;3.70;;
20014;SDS011;61787;42.022;23.078;2024-02-14T04:46:01;6.03;;;3.90;;
20014;SDS011;61787;42.022;23.078;2024-02-14T04:47:03;5.30;;;3.78;;
20014;SDS011;61787;42.022;23.078;2024-02-14T04:48:05;5.30;;;3.83;;
20014;SDS011;61787;42.022;23.078;2024-02-14T04:49:07;6.30;;;3.85;;
20014;SDS011;61787;42.022;23.078;2024-02-14T04:50:09;5.32;;;3.83;;
20014;SDS011;61787;42.022;23.078;2024-02-14T04:51:11;5.30;;;4.13;;
20014;SDS011;61787;42.022;23.078;2024-02-14T04:52:14;5.13;;;4.20;;
20014;SDS011;61787;42.022;23.078;2024-02-14T04:53:17;5.75;;;4.18;;
20014;SDS011;61787;42.022;23.078;2024-02-14T04:54:20;4.90;;;4.00;;
20014;SDS011;61787;42.022;23.078;2024-02-14T04:55:22;5.38;;;4.80;;
20014;SDS011;61787;42.022;23.078;2024-02-14T04:56:24;5.80;;;4.22;;
20014;SDS011;61787;42.022;23.078;2024-02-14T04:57:30;4.95;;;3.78;;
20014;SDS011;61787;42.022;23.078;2024-02-14T04:58:32;6.15;;;4.28;;
20014;SDS011;61787;42.022;23.078;2024-02-14T04:59:34;3.83;;;3.40;;
20014;SDS011;61787;42.022;23.078;2024-02-14T05:00:36;3.60;;;3.03;;
20014;SDS011;61787;42.022;23.078;2024-02-14T05:01:37;6.03;;;3.83;;
20014;SDS011;61787;42.022;23.078;2024-02-14T05:02:41;4.60;;;3.20;;
20014;SDS011;61787;42.022;23.078;2024-02-14T05:03:42;6.32;;;3.67;;
20014;SDS011;61787;42.022;23.078;2024-02-14T05:04:44;3.78;;;3.13;;
20014;SDS011;61787;42.022;23.078;2024-02-14T05:05:46;6.15;;;3.00;;
20014;SDS011;61787;42.022;23.078;2024-02-14T05:06:48;4.32;;;3.00;;
20014;SDS011;61787;42.022;23.078;2024-02-14T05:07:51;5.72;;;3.30;;
20014;SDS011;61787;42.022;23.078;2024-02-14T05:08:53;5.63;;;3.33;;
20014;SDS011;61787;42.022;23.078;2024-02-14T05:09:55;5.40;;;3.65;;
20014;SDS011;61787;42.022;23.078;2024-02-14T05:10:58;5.65;;;3.05;;
20014;SDS011;61787;42.022;23.078;2024-02-14T05:12:00;7.15;;;3.65;;
20014;SDS011;61787;42.022;23.078;2024-02-14T05:13:02;5.07;;;3.45;;
20014;SDS011;61787;42.022;23.078;2024-02-14T05:14:03;4.65;;;3.42;;
20014;SDS011;61787;42.022;23.078;2024-02-14T05:15:05;4.50;;;3.35;;
20014;SDS011;61787;42.022;23.078;2024-02-14T05:16:07;4.25;;;3.33;;
20014;SDS011;61787;42.022;23.078;2024-02-14T05:17:11;4.93;;;3.03;;
20014;SDS011;61787;42.022;23.078;2024-02-14T05:18:13;4.07;;;2.75;;
20014;SDS011;61787;42.022;23.078;2024-02-14T05:19:17;3.85;;;2.75;;
20014;SDS011;61787;42.022;23.078;2024-02-14T05:20:19;2.97;;;2.53;;
20014;SDS011;61787;42.022;23.078;2024-02-14T05:21:21;4.78;;;2.92;;
20014;SDS011;61787;42.022;23.078;2024-02-14T05:22:23;4.15;;;3.08;;
20014;SDS011;61787;42.022;23.078;2024-02-14T05:23:24;4.28;;;3.15;;
20014;SDS011;61787;42.022;23.078;2024-02-14T05:24:26;3.65;;;3.05;;
20014;SDS011;61787;42.022;23.078;2024-02-14T05:25:33;3.13;;;2.33;;
20014;SDS011;61787;42.022;23.078;2024-02-14T05:26:37;4.38;;;3.00;;
20014;SDS011;61787;42.022;23.078;2024-02-14T05:27:39;4.38;;;3.25;;
20014;SDS011;61787;42.022;23.078;2024-02-14T05:28:43;6.63;;;3.47;;
20014;SDS011;61787;42.022;23.078;2024-02-14T05:29:45;3.95;;;3.03;;
20014;SDS011;61787;42.022;23.078;2024-02-14T05:30:47;6.32;;;3.17;;
20014;SDS011;61787;42.022;23.078;2024-02-14T05:31:50;2.28;;;1.77;;
20014;SDS011;61787;42.022;23.078;2024-02-14T05:32:57;4.45;;;2.92;;
20014;SDS011;61787;42.022;23.078;2024-02-14T05:33:58;5.53;;;3.25;;
20014;SDS011;61787;42.022;23.078;2024-02-14T05:35:00;5.85;;;2.75;;
20014;SDS011;61787;42.022;23.078;2024-02-14T05:36:03;4.45;;;2.35;;
20014;SDS011;61787;42.022;23.078;2024-02-14T05:37:05;2.72;;;1.80;;
20014;SDS011;61787;42.022;23.078;2024-02-14T05:38:07;4.20;;;1.02;;
20014;SDS011;61787;42.022;23.078;2024-02-14T05:39:08;3.22;;;1.33;;
20014;SDS011;61787;42.022;23.078;2024-02-14T05:40:11;4.28;;;1.45;;
20014;SDS011;61787;42.022;23.078;2024-02-14T05:41:12;2.97;;;2.10;;
20014;SDS011;61787;42.022;23.078;2024-02-14T05:42:14;4.65;;;2.85;;
20014;SDS011;61787;42.022;23.078;2024-02-14T05:43:17;5.72;;;3.00;;
20014;SDS011;61787;42.022;23.078;2024-02-14T05:44:20;5.82;;;3.72;;
20014;SDS011;61787;42.022;23.078;2024-02-14T05:45:23;4.53;;;3.00;;
20014;SDS011;61787;42.022;23.078;2024-02-14T05:46:25;3.75;;;2.30;;
20014;SDS011;61787;42.022;23.078;2024-02-14T05:47:27;4.68;;;2.90;;
20014;SDS011;61787;42.022;23.078;2024-02-14T05:48:28;3.90;;;2.38;;
20014;SDS011;61787;42.022;23.078;2024-02-14T05:49:30;4.13;;;2.58;;
20014;SDS011;61787;42.022;23.078;2024-02-14T05:50:32;4.57;;;3.60;;
20014;SDS011;61787;42.022;23.078;2024-02-14T05:51:34;4.28;;;3.10;;
20014;SDS011;61787;42.022;23.078;2024-02-14T05:52:36;5.10;;;3.90;;
20014;SDS011;61787;42.022;23.078;2024-02-14T05:53:38;3.92;;;2.28;;
20014;SDS011;61787;42.022;23.078;2024-02-14T05:54:39;5.20;;;3.70;;
20014;SDS011;61787;42.022;23.078;2024-02-14T05:55:41;7.97;;;3.38;;
20014;SDS011;61787;42.022;23.078;2024-02-14T05:56:43;5.40;;;3.40;;
20014;SDS011;61787;42.022;23.078;2024-02-14T05:57:44;5.60;;;2.75;;
20014;SDS011;61787;42.022;23.078;2024-02-14T05:58:46;5.68;;;3.33;;
20014;SDS011;61787;42.022;23.078;2024-02-14T05:59:47;4.97;;;3.47;;
20014;SDS011;61787;42.022;23.078;2024-02-14T06:00:49;4.18;;;2.80;;
20014;SDS011;61787;42.022;23.078;2024-02-14T06:01:51;4.38;;;2.25;;
20014;SDS011;61787;42.022;23.078;2024-02-14T06:02:54;3.92;;;2.38;;
20014;SDS011;61787;42.022;23.078;2024-02-14T06:03:56;3.78;;;2.60;;
20014;SDS011;61787;42.022;23.078;2024-02-14T06:04:57;9.50;;;4.25;;
20014;SDS011;61787;42.022;23.078;2024-02-14T06:05:59;6.13;;;2.95;;
20014;SDS011;61787;42.022;23.078;2024-02-14T06:07:01;5.03;;;1.88;;
20014;SDS011;61787;42.022;23.078;2024-02-14T06:08:04;4.72;;;2.80;;
20014;SDS011;61787;42.022;23.078;2024-02-14T06:09:05;2.47;;;1.60;;
20014;SDS011;61787;42.022;23.078;2024-02-14T06:10:11;4.55;;;3.13;;
20014;SDS011;61787;42.022;23.078;2024-02-14T06:11:13;5.03;;;3.25;;
20014;SDS011;61787;42.022;23.078;2024-02-14T06:12:15;5.20;;;2.80;;